sensor_id;sensor_type;location;lat;lon;timestamp;P1;durP1;ratioP1;P2;durP2;ratioP2
17790;SDS011;9019;48.132;-1.210;2022-08-18T00:01:43;41.00;;;27.97;;
17790;SDS011;9019;48.132;-1.210;2022-08-18T00:04:11;48.07;;;28.87;;
17790;SDS011;9019;48.132;-1.210;2022-08-18T00:06:40;41.08;;;27.73;;
17790;SDS011;9019;48.132;-1.210;2022-08-18T00:09:08;44.70;;;28.13;;
17790;SDS011;9019;48.132;-1.210;2022-08-18T00:11:36;43.33;;;28.13;;
17790;SDS011;9019;48.132;-1.210;2022-08-18T00:14:05;40.05;;;27.20;;
17790;SDS011;9019;48.132;-1.210;2022-08-18T00:16:33;41.13;;;27.48;;
17790;SDS011;9019;48.132;-1.210;2022-08-18T00:19:00;39.92;;;27.33;;
17790;SDS011;9019;48.132;-1.210;2022-08-18T00:21:27;45.97;;;28.43;;
17790;SDS011;9019;48.132;-1.210;2022-08-18T00:23:55;38.93;;;26.77;;
17790;SDS011;9019;48.132;-1.210;2022-08-18T00:26:23;40.60;;;27.43;;
17790;SDS011;9019;48.132;-1.210;2022-08-18T00:28:50;42.17;;;29.03;;
17790;SDS011;9019;48.132;-1.210;2022-08-18T00:31:17;43.60;;;28.52;;
17790;SDS011;9019;48.132;-1.210;2022-08-18T00:33:44;42.05;;;27.75;;
17790;SDS011;9019;48.132;-1.210;2022-08-18T00:36:11;46.78;;;27.80;;
17790;SDS011;9019;48.132;-1.210;2022-08-18T00:38:39;45.53;;;28.97;;
17790;SDS011;9019;48.132;-1.210;2022-08-18T00:41:07;42.83;;;28.80;;
17790;SDS011;9019;48.132;-1.210;2022-08-18T00:43:36;37.10;;;28.00;;
17790;SDS011;9019;48.132;-1.210;2022-08-18T00:46:06;41.50;;;27.70;;
17790;SDS011;9019;48.132;-1.210;2022-08-18T00:48:34;43.15;;;28.50;;
17790;SDS011;9019;48.132;-1.210;2022-08-18T00:51:02;42.33;;;29.53;;
17790;SDS011;9019;48.132;-1.210;2022-08-18T00:53:33;41.17;;;27.97;;
17790;SDS011;9019;48.132;-1.210;2022-08-18T00:56:04;41.93;;;28.77;;
17790;SDS011;9019;48.132;-1.210;2022-08-18T00:58:34;41.07;;;27.83;;
17790;SDS011;9019;48.132;-1.210;2022-08-18T01:01:03;39.17;;;28.27;;
17790;SDS011;9019;48.132;-1.210;2022-08-18T01:03:31;42.33;;;27.90;;
17790;SDS011;9019;48.132;-1.210;2022-08-18T01:06:00;42.97;;;29.03;;
17790;SDS011;9019;48.132;-1.210;2022-08-18T01:08:29;39.20;;;27.43;;
17790;SDS011;9019;48.132;-1.210;2022-08-18T01:10:56;44.23;;;29.07;;
17790;SDS011;9019;48.132;-1.210;2022-08-18T01:13:27;47.27;;;30.17;;
17790;SDS011;9019;48.132;-1.210;2022-08-18T01:15:56;47.97;;;29.97;;
17790;SDS011;9019;48.132;-1.210;2022-08-18T01:18:23;45.57;;;29.10;;
17790;SDS011;9019;48.132;-1.210;2022-08-18T01:21:09;47.63;;;29.80;;
17790;SDS011;9019;48.132;-1.210;2022-08-18T01:23:57;44.27;;;29.40;;
17790;SDS011;9019;48.132;-1.210;2022-08-18T01:26:25;50.33;;;31.43;;
17790;SDS011;9019;48.132;-1.210;2022-08-18T01:28:54;48.37;;;31.47;;
17790;SDS011;9019;48.132;-1.210;2022-08-18T01:31:32;46.67;;;30.70;;
17790;SDS011;9019;48.132;-1.210;2022-08-18T01:34:02;52.77;;;32.50;;
17790;SDS011;9019;48.132;-1.210;2022-08-18T01:36:30;56.57;;;34.67;;
17790;SDS011;9019;48.132;-1.210;2022-08-18T01:39:00;51.90;;;34.90;;
17790;SDS011;9019;48.132;-1.210;2022-08-18T01:41:27;56.17;;;35.87;;
17790;SDS011;9019;48.132;-1.210;2022-08-18T01:43:55;57.77;;;33.90;;
17790;SDS011;9019;48.132;-1.210;2022-08-18T01:46:23;58.40;;;35.33;;
17790;SDS011;9019;48.132;-1.210;2022-08-18T01:48:50;53.73;;;34.17;;
17790;SDS011;9019;48.132;-1.210;2022-08-18T01:51:17;53.00;;;34.77;;
17790;SDS011;9019;48.132;-1.210;2022-08-18T01:53:46;54.93;;;35.37;;
17790;SDS011;9019;48.132;-1.210;2022-08-18T01:56:15;52.97;;;34.00;;
17790;SDS011;9019;48.132;-1.210;2022-08-18T01:58:43;52.80;;;34.57;;
17790;SDS011;9019;48.132;-1.210;2022-08-18T02:01:11;53.93;;;35.30;;
17790;SDS011;9019;48.132;-1.210;2022-08-18T02:03:39;55.57;;;34.90;;
17790;SDS011;9019;48.132;-1.210;2022-08-18T02:06:09;53.53;;;34.17;;
17790;SDS011;9019;48.132;-1.210;2022-08-18T02:08:36;53.93;;;34.57;;
17790;SDS011;9019;48.132;-1.210;2022-08-18T02:11:04;50.70;;;33.33;;
17790;SDS011;9019;48.132;-1.210;2022-08-18T02:13:32;57.00;;;34.60;;
17790;SDS011;9019;48.132;-1.210;2022-08-18T02:16:00;51.57;;;34.17;;
17790;SDS011;9019;48.132;-1.210;2022-08-18T02:18:29;59.20;;;36.07;;
17790;SDS011;9019;48.132;-1.210;2022-08-18T02:20:57;51.77;;;34.07;;
17790;SDS011;9019;48.132;-1.210;2022-08-18T02:23:24;54.23;;;35.47;;
17790;SDS011;9019;48.132;-1.210;2022-08-18T02:25:52;54.77;;;36.00;;
17790;SDS011;9019;48.132;-1.210;2022-08-18T02:28:19;52.37;;;35.23;;
17790;SDS011;9019;48.132;-1.210;2022-08-18T02:30:47;54.73;;;35.43;;
17790;SDS011;9019;48.132;-1.210;2022-08-18T02:33:15;51.30;;;34.17;;
17790;SDS011;9019;48.132;-1.210;2022-08-18T02:35:42;57.93;;;36.30;;
17790;SDS011;9019;48.132;-1.210;2022-08-18T02:38:10;54.80;;;35.63;;
17790;SDS011;9019;48.132;-1.210;2022-08-18T02:40:37;53.37;;;34.13;;
17790;SDS011;9019;48.132;-1.210;2022-08-18T02:43:05;54.60;;;33.73;;
17790;SDS011;9019;48.132;-1.210;2022-08-18T02:45:33;55.77;;;34.87;;
17790;SDS011;9019;48.132;-1.210;2022-08-18T02:48:02;49.27;;;35.27;;
17790;SDS011;9019;48.132;-1.210;2022-08-18T02:50:29;52.43;;;32.83;;
17790;SDS011;9019;48.132;-1.210;2022-08-18T02:52:57;54.93;;;34.53;;
17790;SDS011;9019;48.132;-1.210;2022-08-18T02:55:24;51.57;;;34.47;;
17790;SDS011;9019;48.132;-1.210;2022-08-18T02:57:53;54.53;;;35.13;;
17790;SDS011;9019;48.132;-1.210;2022-08-18T03:00:20;54.50;;;35.40;;
17790;SDS011;9019;48.132;-1.210;2022-08-18T03:02:47;57.10;;;34.77;;
17790;SDS011;9019;48.132;-1.210;2022-08-18T03:05:17;58.53;;;34.97;;
17790;SDS011;9019;48.132;-1.210;2022-08-18T03:07:45;59.73;;;35.80;;
17790;SDS011;9019;48.132;-1.210;2022-08-18T03:10:14;67.43;;;37.67;;
17790;SDS011;9019;48.132;-1.210;2022-08-18T03:12:41;63.80;;;37.23;;
17790;SDS011;9019;48.132;-1.210;2022-08-18T03:15:09;76.03;;;38.17;;
17790;SDS011;9019;48.132;-1.210;2022-08-18T03:17:36;75.20;;;38.90;;
17790;SDS011;9019;48.132;-1.210;2022-08-18T03:20:04;74.33;;;38.63;;
17790;SDS011;9019;48.132;-1.210;2022-08-18T03:22:33;73.70;;;38.23;;
17790;SDS011;9019;48.132;-1.210;2022-08-18T03:25:00;69.77;;;36.87;;
17790;SDS011;9019;48.132;-1.210;2022-08-18T03:27:27;74.33;;;39.43;;
17790;SDS011;9019;48.132;-1.210;2022-08-18T03:29:55;72.50;;;37.60;;
17790;SDS011;9019;48.132;-1.210;2022-08-18T03:32:22;66.40;;;37.60;;
17790;SDS011;9019;48.132;-1.210;2022-08-18T03:34:49;65.63;;;37.27;;
17790;SDS011;9019;48.132;-1.210;2022-08-18T03:37:16;68.10;;;37.50;;
17790;SDS011;9019;48.132;-1.210;2022-08-18T03:39:45;69.27;;;38.40;;
17790;SDS011;9019;48.132;-1.210;2022-08-18T03:42:15;66.77;;;37.13;;
17790;SDS011;9019;48.132;-1.210;2022-08-18T03:44:43;63.03;;;37.40;;
17790;SDS011;9019;48.132;-1.210;2022-08-18T03:47:10;62.70;;;37.30;;
17790;SDS011;9019;48.132;-1.210;2022-08-18T03:49:37;64.37;;;36.77;;
17790;SDS011;9019;48.132;-1.210;2022-08-18T03:52:06;62.40;;;36.47;;
17790;SDS011;9019;48.132;-1.210;2022-08-18T03:54:33;58.40;;;35.90;;
17790;SDS011;9019;48.132;-1.210;2022-08-18T03:57:06;59.97;;;35.70;;
17790;SDS011;9019;48.132;-1.210;2022-08-18T03:59:33;60.57;;;35.67;;
17790;SDS011;9019;48.132;-1.210;2022-08-18T04:02:02;61.17;;;35.23;;
17790;SDS011;9019;48.132;-1.210;2022-08-18T04:04:29;66.07;;;36.60;;
17790;SDS011;9019;48.132;-1.210;2022-08-18T04:07:02;72.63;;;38.53;;
17790;SDS011;9019;48.132;-1.210;2022-08-18T04:09:31;74.97;;;38.63;;
17790;SDS011;9019;48.132;-1.210;2022-08-18T04:12:02;72.70;;;38.87;;
17790;SDS011;9019;48.132;-1.210;2022-08-18T04:14:31;76.20;;;39.30;;
17790;SDS011;9019;48.132;-1.210;2022-08-18T04:16:58;70.77;;;39.30;;
17790;SDS011;9019;48.132;-1.210;2022-08-18T04:19:25;69.97;;;39.20;;
17790;SDS011;9019;48.132;-1.210;2022-08-18T04:21:53;66.33;;;38.03;;
17790;SDS011;9019;48.132;-1.210;2022-08-18T04:24:20;67.67;;;38.80;;
17790;SDS011;9019;48.132;-1.210;2022-08-18T04:26:48;69.80;;;38.10;;
17790;SDS011;9019;48.132;-1.210;2022-08-18T04:29:17;66.23;;;38.03;;
17790;SDS011;9019;48.132;-1.210;2022-08-18T04:31:46;63.43;;;35.93;;
17790;SDS011;9019;48.132;-1.210;2022-08-18T04:34:14;63.53;;;37.03;;
17790;SDS011;9019;48.132;-1.210;2022-08-18T04:36:41;64.30;;;36.50;;
17790;SDS011;9019;48.132;-1.210;2022-08-18T04:39:09;61.77;;;35.27;;
17790;SDS011;9019;48.132;-1.210;2022-08-18T04:41:37;62.97;;;36.30;;
17790;SDS011;9019;48.132;-1.210;2022-08-18T04:44:06;68.67;;;37.27;;
17790;SDS011;9019;48.132;-1.210;2022-08-18T04:46:34;65.63;;;37.13;;
17790;SDS011;9019;48.132;-1.210;2022-08-18T04:49:02;68.00;;;38.10;;
17790;SDS011;9019;48.132;-1.210;2022-08-18T04:51:30;68.97;;;38.37;;
17790;SDS011;9019;48.132;-1.210;2022-08-18T04:53:57;79.67;;;39.50;;
17790;SDS011;9019;48.132;-1.210;2022-08-18T04:56:25;72.17;;;40.23;;
17790;SDS011;9019;48.132;-1.210;2022-08-18T04:58:54;94.57;;;40.43;;
17790;SDS011;9019;48.132;-1.210;2022-08-18T05:01:23;82.77;;;40.97;;
17790;SDS011;9019;48.132;-1.210;2022-08-18T05:03:51;85.07;;;39.43;;
17790;SDS011;9019;48.132;-1.210;2022-08-18T05:06:21;75.73;;;39.73;;
17790;SDS011;9019;48.132;-1.210;2022-08-18T05:08:49;120.37;;;40.13;;
17790;SDS011;9019;48.132;-1.210;2022-08-18T05:11:17;163.70;;;40.13;;
17790;SDS011;9019;48.132;-1.210;2022-08-18T05:13:46;89.37;;;38.03;;
17790;SDS011;9019;48.132;-1.210;2022-08-18T05:16:13;181.63;;;40.57;;
17790;SDS011;9019;48.132;-1.210;2022-08-18T05:18:41;123.37;;;40.00;;
17790;SDS011;9019;48.132;-1.210;2022-08-18T05:21:08;106.80;;;40.67;;
17790;SDS011;9019;48.132;-1.210;2022-08-18T05:23:41;84.60;;;40.57;;
17790;SDS011;9019;48.132;-1.210;2022-08-18T05:26:08;80.23;;;39.23;;
17790;SDS011;9019;48.132;-1.210;2022-08-18T05:28:37;116.00;;;41.40;;
17790;SDS011;9019;48.132;-1.210;2022-08-18T05:31:05;130.67;;;42.80;;
17790;SDS011;9019;48.132;-1.210;2022-08-18T05:33:33;99.37;;;40.50;;
17790;SDS011;9019;48.132;-1.210;2022-08-18T05:36:03;92.00;;;40.43;;
17790;SDS011;9019;48.132;-1.210;2022-08-18T05:38:33;87.07;;;40.03;;
17790;SDS011;9019;48.132;-1.210;2022-08-18T05:41:07;81.83;;;39.03;;
17790;SDS011;9019;48.132;-1.210;2022-08-18T05:43:35;83.80;;;40.07;;
17790;SDS011;9019;48.132;-1.210;2022-08-18T05:46:02;81.77;;;39.03;;
17790;SDS011;9019;48.132;-1.210;2022-08-18T05:48:31;107.47;;;38.80;;
17790;SDS011;9019;48.132;-1.210;2022-08-18T05:50:58;97.95;;;38.05;;
17790;SDS011;9019;48.132;-1.210;2022-08-18T05:53:28;70.23;;;38.83;;
17790;SDS011;9019;48.132;-1.210;2022-08-18T05:56:10;89.50;;;37.57;;
17790;SDS011;9019;48.132;-1.210;2022-08-18T05:58:56;79.37;;;38.93;;
17790;SDS011;9019;48.132;-1.210;2022-08-18T06:01:26;77.97;;;38.53;;
17790;SDS011;9019;48.132;-1.210;2022-08-18T06:03:56;64.73;;;36.60;;
17790;SDS011;9019;48.132;-1.210;2022-08-18T06:06:25;73.23;;;37.57;;
17790;SDS011;9019;48.132;-1.210;2022-08-18T06:08:55;63.00;;;37.23;;
17790;SDS011;9019;48.132;-1.210;2022-08-18T06:11:24;68.20;;;37.08;;
17790;SDS011;9019;48.132;-1.210;2022-08-18T06:13:52;67.95;;;36.53;;
17790;SDS011;9019;48.132;-1.210;2022-08-18T06:16:20;69.60;;;38.15;;
17790;SDS011;9019;48.132;-1.210;2022-08-18T06:18:52;63.63;;;37.80;;
17790;SDS011;9019;48.132;-1.210;2022-08-18T06:21:29;63.57;;;37.63;;
17790;SDS011;9019;48.132;-1.210;2022-08-18T06:24:01;62.47;;;37.17;;
17790;SDS011;9019;48.132;-1.210;2022-08-18T06:26:36;60.45;;;36.75;;
17790;SDS011;9019;48.132;-1.210;2022-08-18T06:29:10;63.90;;;36.47;;
17790;SDS011;9019;48.132;-1.210;2022-08-18T06:31:44;64.72;;;37.22;;
17790;SDS011;9019;48.132;-1.210;2022-08-18T06:34:15;66.40;;;37.90;;
17790;SDS011;9019;48.132;-1.210;2022-08-18T06:36:49;62.80;;;37.00;;
17790;SDS011;9019;48.132;-1.210;2022-08-18T06:39:20;58.65;;;35.75;;
17790;SDS011;9019;48.132;-1.210;2022-08-18T06:41:51;56.80;;;36.53;;
17790;SDS011;9019;48.132;-1.210;2022-08-18T06:44:20;56.05;;;36.08;;
17790;SDS011;9019;48.132;-1.210;2022-08-18T06:46:49;57.80;;;34.95;;
17790;SDS011;9019;48.132;-1.210;2022-08-18T06:49:22;53.60;;;34.72;;
17790;SDS011;9019;48.132;-1.210;2022-08-18T06:51:50;50.92;;;34.63;;
17790;SDS011;9019;48.132;-1.210;2022-08-18T06:54:25;53.13;;;34.88;;
17790;SDS011;9019;48.132;-1.210;2022-08-18T06:56:55;56.90;;;34.97;;
17790;SDS011;9019;48.132;-1.210;2022-08-18T06:59:24;53.30;;;34.55;;
17790;SDS011;9019;48.132;-1.210;2022-08-18T07:01:52;52.63;;;34.53;;
17790;SDS011;9019;48.132;-1.210;2022-08-18T07:07:13;52.20;;;33.78;;
17790;SDS011;9019;48.132;-1.210;2022-08-18T07:09:41;42.88;;;33.10;;
17790;SDS011;9019;48.132;-1.210;2022-08-18T07:12:10;50.10;;;33.65;;
17790;SDS011;9019;48.132;-1.210;2022-08-18T07:14:45;47.38;;;32.95;;
17790;SDS011;9019;48.132;-1.210;2022-08-18T07:17:13;46.80;;;33.85;;
17790;SDS011;9019;48.132;-1.210;2022-08-18T07:19:52;47.63;;;32.20;;
17790;SDS011;9019;48.132;-1.210;2022-08-18T07:22:20;45.42;;;30.48;;
17790;SDS011;9019;48.132;-1.210;2022-08-18T07:24:48;46.28;;;32.03;;
17790;SDS011;9019;48.132;-1.210;2022-08-18T07:27:17;42.78;;;31.48;;
17790;SDS011;9019;48.132;-1.210;2022-08-18T07:29:58;42.10;;;31.02;;
17790;SDS011;9019;48.132;-1.210;2022-08-18T07:32:28;44.17;;;31.73;;
17790;SDS011;9019;48.132;-1.210;2022-08-18T07:34:59;41.38;;;30.65;;
17790;SDS011;9019;48.132;-1.210;2022-08-18T07:37:31;38.17;;;28.65;;
17790;SDS011;9019;48.132;-1.210;2022-08-18T07:40:03;39.78;;;28.95;;
17790;SDS011;9019;48.132;-1.210;2022-08-18T07:42:33;38.13;;;29.30;;
17790;SDS011;9019;48.132;-1.210;2022-08-18T07:45:04;36.17;;;28.35;;
17790;SDS011;9019;48.132;-1.210;2022-08-18T07:47:34;46.38;;;31.67;;
17790;SDS011;9019;48.132;-1.210;2022-08-18T07:50:05;47.72;;;32.80;;
17790;SDS011;9019;48.132;-1.210;2022-08-18T07:52:35;33.78;;;27.20;;
17790;SDS011;9019;48.132;-1.210;2022-08-18T07:55:05;31.95;;;26.80;;
17790;SDS011;9019;48.132;-1.210;2022-08-18T07:57:38;31.85;;;26.08;;
17790;SDS011;9019;48.132;-1.210;2022-08-18T08:00:09;31.98;;;28.38;;
17790;SDS011;9019;48.132;-1.210;2022-08-18T08:02:39;33.10;;;26.92;;
17790;SDS011;9019;48.132;-1.210;2022-08-18T08:05:13;33.03;;;27.00;;
17790;SDS011;9019;48.132;-1.210;2022-08-18T08:07:44;31.65;;;26.52;;
17790;SDS011;9019;48.132;-1.210;2022-08-18T08:10:18;32.08;;;24.17;;
17790;SDS011;9019;48.132;-1.210;2022-08-18T08:12:49;26.02;;;23.05;;
17790;SDS011;9019;48.132;-1.210;2022-08-18T08:15:20;37.97;;;25.33;;
17790;SDS011;9019;48.132;-1.210;2022-08-18T08:17:53;29.02;;;22.23;;
17790;SDS011;9019;48.132;-1.210;2022-08-18T08:20:25;24.02;;;21.48;;
17790;SDS011;9019;48.132;-1.210;2022-08-18T08:22:59;22.83;;;20.25;;
17790;SDS011;9019;48.132;-1.210;2022-08-18T08:25:29;22.20;;;19.92;;
17790;SDS011;9019;48.132;-1.210;2022-08-18T08:28:03;19.88;;;17.88;;
17790;SDS011;9019;48.132;-1.210;2022-08-18T08:30:35;20.90;;;18.77;;
17790;SDS011;9019;48.132;-1.210;2022-08-18T08:33:06;19.40;;;17.38;;
17790;SDS011;9019;48.132;-1.210;2022-08-18T08:35:37;20.25;;;18.25;;
17790;SDS011;9019;48.132;-1.210;2022-08-18T08:38:10;19.58;;;17.60;;
17790;SDS011;9019;48.132;-1.210;2022-08-18T08:40:42;19.55;;;17.58;;
17790;SDS011;9019;48.132;-1.210;2022-08-18T08:43:13;20.85;;;18.85;;
17790;SDS011;9019;48.132;-1.210;2022-08-18T08:45:43;22.55;;;20.17;;
17790;SDS011;9019;48.132;-1.210;2022-08-18T08:48:12;22.35;;;20.05;;
17790;SDS011;9019;48.132;-1.210;2022-08-18T08:50:42;23.20;;;20.65;;
17790;SDS011;9019;48.132;-1.210;2022-08-18T08:53:11;23.33;;;20.92;;
17790;SDS011;9019;48.132;-1.210;2022-08-18T08:55:43;23.45;;;21.05;;
17790;SDS011;9019;48.132;-1.210;2022-08-18T08:58:18;24.23;;;21.63;;
17790;SDS011;9019;48.132;-1.210;2022-08-18T09:00:46;23.65;;;21.13;;
17790;SDS011;9019;48.132;-1.210;2022-08-18T09:03:20;24.13;;;21.30;;
17790;SDS011;9019;48.132;-1.210;2022-08-18T09:05:51;25.45;;;21.17;;
17790;SDS011;9019;48.132;-1.210;2022-08-18T09:08:27;23.60;;;20.95;;
17790;SDS011;9019;48.132;-1.210;2022-08-18T09:16:46;23.83;;;20.83;;
17790;SDS011;9019;48.132;-1.210;2022-08-18T09:19:20;25.08;;;22.38;;
17790;SDS011;9019;48.132;-1.210;2022-08-18T09:21:52;22.83;;;20.42;;
17790;SDS011;9019;48.132;-1.210;2022-08-18T09:24:23;20.65;;;18.60;;
17790;SDS011;9019;48.132;-1.210;2022-08-18T09:26:52;21.25;;;19.10;;
17790;SDS011;9019;48.132;-1.210;2022-08-18T09:29:21;20.98;;;18.88;;
17790;SDS011;9019;48.132;-1.210;2022-08-18T09:34:41;21.80;;;19.60;;
17790;SDS011;9019;48.132;-1.210;2022-08-18T09:37:12;22.17;;;18.70;;
17790;SDS011;9019;48.132;-1.210;2022-08-18T09:39:42;19.25;;;17.27;;
17790;SDS011;9019;48.132;-1.210;2022-08-18T09:42:32;21.23;;;18.77;;
17790;SDS011;9019;48.132;-1.210;2022-08-18T09:45:04;19.30;;;17.25;;
17790;SDS011;9019;48.132;-1.210;2022-08-18T09:50:50;19.98;;;17.98;;
17790;SDS011;9019;48.132;-1.210;2022-08-18T09:53:51;17.48;;;15.77;;
17790;SDS011;9019;48.132;-1.210;2022-08-18T09:59:00;16.05;;;14.43;;
17790;SDS011;9019;48.132;-1.210;2022-08-18T10:01:38;15.68;;;14.00;;
17790;SDS011;9019;48.132;-1.210;2022-08-18T10:06:53;14.23;;;12.73;;
17790;SDS011;9019;48.132;-1.210;2022-08-18T10:09:25;11.48;;;10.40;;
17790;SDS011;9019;48.132;-1.210;2022-08-18T10:14:48;14.38;;;12.90;;
17790;SDS011;9019;48.132;-1.210;2022-08-18T10:17:24;12.80;;;10.93;;
17790;SDS011;9019;48.132;-1.210;2022-08-18T10:19:56;12.63;;;9.88;;
17790;SDS011;9019;48.132;-1.210;2022-08-18T10:22:34;9.50;;;8.70;;
17790;SDS011;9019;48.132;-1.210;2022-08-18T10:25:02;9.10;;;8.23;;
17790;SDS011;9019;48.132;-1.210;2022-08-18T10:27:36;9.40;;;8.43;;
17790;SDS011;9019;48.132;-1.210;2022-08-18T10:32:54;9.05;;;8.25;;
17790;SDS011;9019;48.132;-1.210;2022-08-18T10:38:25;9.70;;;8.70;;
17790;SDS011;9019;48.132;-1.210;2022-08-18T10:40:56;10.07;;;9.07;;
17790;SDS011;9019;48.132;-1.210;2022-08-18T10:43:27;10.30;;;7.53;;
17790;SDS011;9019;48.132;-1.210;2022-08-18T10:45:58;7.00;;;6.30;;
17790;SDS011;9019;48.132;-1.210;2022-08-18T10:48:26;7.60;;;6.90;;
17790;SDS011;9019;48.132;-1.210;2022-08-18T10:50:55;6.38;;;5.78;;
17790;SDS011;9019;48.132;-1.210;2022-08-18T10:53:26;7.63;;;6.90;;
17790;SDS011;9019;48.132;-1.210;2022-08-18T10:55:58;8.48;;;7.40;;
17790;SDS011;9019;48.132;-1.210;2022-08-18T10:58:31;7.20;;;6.50;;
17790;SDS011;9019;48.132;-1.210;2022-08-18T11:01:06;7.00;;;6.25;;
17790;SDS011;9019;48.132;-1.210;2022-08-18T11:03:58;6.93;;;6.20;;
17790;SDS011;9019;48.132;-1.210;2022-08-18T11:06:27;6.80;;;6.10;;
17790;SDS011;9019;48.132;-1.210;2022-08-18T11:08:58;7.75;;;7.05;;
17790;SDS011;9019;48.132;-1.210;2022-08-18T11:11:28;7.80;;;6.75;;
17790;SDS011;9019;48.132;-1.210;2022-08-18T11:13:59;7.00;;;6.35;;
17790;SDS011;9019;48.132;-1.210;2022-08-18T11:16:34;7.28;;;6.50;;
17790;SDS011;9019;48.132;-1.210;2022-08-18T11:19:07;7.43;;;6.82;;
17790;SDS011;9019;48.132;-1.210;2022-08-18T11:21:38;6.30;;;5.65;;
17790;SDS011;9019;48.132;-1.210;2022-08-18T11:24:08;8.00;;;6.25;;
17790;SDS011;9019;48.132;-1.210;2022-08-18T11:26:36;6.57;;;5.80;;
17790;SDS011;9019;48.132;-1.210;2022-08-18T11:29:21;6.38;;;5.78;;
17790;SDS011;9019;48.132;-1.210;2022-08-18T11:31:49;7.32;;;6.28;;
17790;SDS011;9019;48.132;-1.210;2022-08-18T11:34:18;6.60;;;5.63;;
17790;SDS011;9019;48.132;-1.210;2022-08-18T11:36:55;6.00;;;5.50;;
17790;SDS011;9019;48.132;-1.210;2022-08-18T11:39:24;7.05;;;6.35;;
17790;SDS011;9019;48.132;-1.210;2022-08-18T11:41:52;8.23;;;6.53;;
17790;SDS011;9019;48.132;-1.210;2022-08-18T11:44:20;7.18;;;6.47;;
17790;SDS011;9019;48.132;-1.210;2022-08-18T11:46:49;6.57;;;5.97;;
17790;SDS011;9019;48.132;-1.210;2022-08-18T11:49:25;8.13;;;6.05;;
17790;SDS011;9019;48.132;-1.210;2022-08-18T11:51:55;6.25;;;5.65;;
17790;SDS011;9019;48.132;-1.210;2022-08-18T11:54:22;5.32;;;4.82;;
17790;SDS011;9019;48.132;-1.210;2022-08-18T11:59:41;6.13;;;5.53;;
17790;SDS011;9019;48.132;-1.210;2022-08-18T12:02:08;6.07;;;4.93;;
17790;SDS011;9019;48.132;-1.210;2022-08-18T12:04:36;5.68;;;4.82;;
17790;SDS011;9019;48.132;-1.210;2022-08-18T12:07:05;6.18;;;4.95;;
17790;SDS011;9019;48.132;-1.210;2022-08-18T12:09:35;5.80;;;5.22;;
17790;SDS011;9019;48.132;-1.210;2022-08-18T12:12:04;5.88;;;4.10;;
17790;SDS011;9019;48.132;-1.210;2022-08-18T12:14:33;5.38;;;4.88;;
17790;SDS011;9019;48.132;-1.210;2022-08-18T12:17:17;5.90;;;4.45;;
17790;SDS011;9019;48.132;-1.210;2022-08-18T12:19:45;4.75;;;4.25;;
17790;SDS011;9019;48.132;-1.210;2022-08-18T12:22:13;4.85;;;3.75;;
17790;SDS011;9019;48.132;-1.210;2022-08-18T12:24:41;5.70;;;4.55;;
17790;SDS011;9019;48.132;-1.210;2022-08-18T12:27:09;6.20;;;5.32;;
17790;SDS011;9019;48.132;-1.210;2022-08-18T12:29:38;5.50;;;5.00;;
17790;SDS011;9019;48.132;-1.210;2022-08-18T12:32:05;5.43;;;4.78;;
17790;SDS011;9019;48.132;-1.210;2022-08-18T12:34:34;11.02;;;4.88;;
17790;SDS011;9019;48.132;-1.210;2022-08-18T12:37:02;5.82;;;4.90;;
17790;SDS011;9019;48.132;-1.210;2022-08-18T12:39:29;5.50;;;4.45;;
17790;SDS011;9019;48.132;-1.210;2022-08-18T12:41:57;5.78;;;5.10;;
17790;SDS011;9019;48.132;-1.210;2022-08-18T12:44:24;6.40;;;4.88;;
17790;SDS011;9019;48.132;-1.210;2022-08-18T12:46:51;5.75;;;4.53;;
17790;SDS011;9019;48.132;-1.210;2022-08-18T12:49:20;4.50;;;4.10;;
17790;SDS011;9019;48.132;-1.210;2022-08-18T12:51:49;4.88;;;4.13;;
17790;SDS011;9019;48.132;-1.210;2022-08-18T12:54:18;6.70;;;4.60;;
17790;SDS011;9019;48.132;-1.210;2022-08-18T12:56:47;7.60;;;5.05;;
17790;SDS011;9019;48.132;-1.210;2022-08-18T12:59:14;6.90;;;5.10;;
17790;SDS011;9019;48.132;-1.210;2022-08-18T13:01:42;5.47;;;4.93;;
17790;SDS011;9019;48.132;-1.210;2022-08-18T13:04:09;7.03;;;4.35;;
17790;SDS011;9019;48.132;-1.210;2022-08-18T13:06:37;4.85;;;4.30;;
17790;SDS011;9019;48.132;-1.210;2022-08-18T13:09:06;6.25;;;4.65;;
17790;SDS011;9019;48.132;-1.210;2022-08-18T13:11:34;5.43;;;4.75;;
17790;SDS011;9019;48.132;-1.210;2022-08-18T13:14:01;6.25;;;5.20;;
17790;SDS011;9019;48.132;-1.210;2022-08-18T13:16:28;6.32;;;5.05;;
17790;SDS011;9019;48.132;-1.210;2022-08-18T13:18:57;5.82;;;4.97;;
17790;SDS011;9019;48.132;-1.210;2022-08-18T13:21:24;5.60;;;5.00;;
17790;SDS011;9019;48.132;-1.210;2022-08-18T13:23:51;5.20;;;4.70;;
17790;SDS011;9019;48.132;-1.210;2022-08-18T13:26:22;5.30;;;4.80;;
17790;SDS011;9019;48.132;-1.210;2022-08-18T13:28:50;4.47;;;4.07;;
17790;SDS011;9019;48.132;-1.210;2022-08-18T13:31:17;5.57;;;4.78;;
17790;SDS011;9019;48.132;-1.210;2022-08-18T13:33:45;5.57;;;4.28;;
17790;SDS011;9019;48.132;-1.210;2022-08-18T13:36:12;4.93;;;4.22;;
17790;SDS011;9019;48.132;-1.210;2022-08-18T13:38:39;4.43;;;4.03;;
17790;SDS011;9019;48.132;-1.210;2022-08-18T13:41:07;5.53;;;4.13;;
17790;SDS011;9019;48.132;-1.210;2022-08-18T13:43:36;4.68;;;4.25;;
17790;SDS011;9019;48.132;-1.210;2022-08-18T13:46:07;4.20;;;3.80;;
17790;SDS011;9019;48.132;-1.210;2022-08-18T13:48:35;4.75;;;4.25;;
17790;SDS011;9019;48.132;-1.210;2022-08-18T13:51:02;4.65;;;4.22;;
17790;SDS011;9019;48.132;-1.210;2022-08-18T13:53:30;4.40;;;4.00;;
17790;SDS011;9019;48.132;-1.210;2022-08-18T13:55:58;5.38;;;4.18;;
17790;SDS011;9019;48.132;-1.210;2022-08-18T13:58:25;4.32;;;3.92;;
17790;SDS011;9019;48.132;-1.210;2022-08-18T14:00:56;3.85;;;3.47;;
17790;SDS011;9019;48.132;-1.210;2022-08-18T14:03:23;4.15;;;3.80;;
17790;SDS011;9019;48.132;-1.210;2022-08-18T14:05:51;4.18;;;3.78;;
17790;SDS011;9019;48.132;-1.210;2022-08-18T14:08:22;4.03;;;3.70;;
17790;SDS011;9019;48.132;-1.210;2022-08-18T14:10:52;5.10;;;3.95;;
17790;SDS011;9019;48.132;-1.210;2022-08-18T14:13:20;6.32;;;4.03;;
17790;SDS011;9019;48.132;-1.210;2022-08-18T14:15:47;5.68;;;4.18;;
17790;SDS011;9019;48.132;-1.210;2022-08-18T14:18:18;4.75;;;4.35;;
17790;SDS011;9019;48.132;-1.210;2022-08-18T14:20:45;4.97;;;4.00;;
17790;SDS011;9019;48.132;-1.210;2022-08-18T14:23:30;5.25;;;4.30;;
17790;SDS011;9019;48.132;-1.210;2022-08-18T14:26:26;5.72;;;4.38;;
17790;SDS011;9019;48.132;-1.210;2022-08-18T14:29:11;6.93;;;3.97;;
17790;SDS011;9019;48.132;-1.210;2022-08-18T14:31:39;5.95;;;4.13;;
17790;SDS011;9019;48.132;-1.210;2022-08-18T14:34:08;6.13;;;3.70;;
17790;SDS011;9019;48.132;-1.210;2022-08-18T14:36:35;5.80;;;3.80;;
17790;SDS011;9019;48.132;-1.210;2022-08-18T14:39:02;6.47;;;4.00;;
17790;SDS011;9019;48.132;-1.210;2022-08-18T14:41:30;3.88;;;3.53;;
17790;SDS011;9019;48.132;-1.210;2022-08-18T14:43:58;3.90;;;3.50;;
17790;SDS011;9019;48.132;-1.210;2022-08-18T14:46:25;6.47;;;3.60;;
17790;SDS011;9019;48.132;-1.210;2022-08-18T14:48:52;4.00;;;3.60;;
17790;SDS011;9019;48.132;-1.210;2022-08-18T14:51:21;4.85;;;3.42;;
17790;SDS011;9019;48.132;-1.210;2022-08-18T14:53:52;6.18;;;3.78;;
17790;SDS011;9019;48.132;-1.210;2022-08-18T14:56:20;5.43;;;3.60;;
17790;SDS011;9019;48.132;-1.210;2022-08-18T14:58:49;5.72;;;4.13;;
17790;SDS011;9019;48.132;-1.210;2022-08-18T15:01:16;7.68;;;3.75;;
17790;SDS011;9019;48.132;-1.210;2022-08-18T15:03:44;4.75;;;4.00;;
17790;SDS011;9019;48.132;-1.210;2022-08-18T15:06:11;4.97;;;4.28;;
17790;SDS011;9019;48.132;-1.210;2022-08-18T15:08:40;4.28;;;3.42;;
17790;SDS011;9019;48.132;-1.210;2022-08-18T15:11:07;5.65;;;3.80;;
17790;SDS011;9019;48.132;-1.210;2022-08-18T15:13:34;4.63;;;3.60;;
17790;SDS011;9019;48.132;-1.210;2022-08-18T15:16:04;4.38;;;3.90;;